GLO1977 SBPS-SBCF
Flight info
| Callsign | GLO1977 |
|---|---|
| Flight time | 0h 56m |
| Altitude | 36000 |
| Route | EDRAG DCT DORDU DCT OPTEB |
| Aircraft | B38M/M-SDFGHIJ4J5KLORWXY/LB1 |
Departure
| Time | 2026-04-28 20:08 |
|---|---|
| Airport | Porto Seguro International Airport (SBPS) |
Arrival
| Time | 2026-04-28 21:04 |
|---|---|
| Airport | Tancredo Neves International Airport (SBCF) |
| Time | Latitude | Longitude | Altitude | Speed | Heading |
|---|---|---|---|---|---|
| 2026-04-28 19:55 | -16.44079 | -39.08164 | 162 ft | 0 kts | 164° |
| 2026-04-28 20:01 | -16.44067 | -39.08167 | 162 ft | 4 kts | 172° |
| 2026-04-28 20:02 | -16.44042 | -39.08165 | 162 ft | 4 kts | 210° |
| 2026-04-28 20:02 | -16.44027 | -39.08146 | 162 ft | 3 kts | 253° |
| 2026-04-28 20:02 | -16.44024 | -39.08139 | 162 ft | 0 kts | 254° |
| 2026-04-28 20:04 | -16.44025 | -39.08140 | 162 ft | 1 kts | 254° |
| 2026-04-28 20:04 | -16.44029 | -39.08157 | 162 ft | 4 kts | 254° |
| 2026-04-28 20:04 | -16.44038 | -39.08189 | 162 ft | 6 kts | 254° |
| 2026-04-28 20:05 | -16.44051 | -39.08237 | 162 ft | 8 kts | 254° |
| 2026-04-28 20:05 | -16.44039 | -39.08290 | 162 ft | 9 kts | 331° |
| 2026-04-28 20:05 | -16.43973 | -39.08309 | 162 ft | 11 kts | 345° |
| 2026-04-28 20:05 | -16.43928 | -39.08371 | 160 ft | 13 kts | 261° |
| 2026-04-28 20:06 | -16.43954 | -39.08470 | 161 ft | 15 kts | 254° |
| 2026-04-28 20:06 | -16.43983 | -39.08579 | 161 ft | 16 kts | 254° |
| 2026-04-28 20:06 | -16.44016 | -39.08701 | 161 ft | 18 kts | 254° |
| 2026-04-28 20:06 | -16.44052 | -39.08834 | 163 ft | 19 kts | 254° |
| 2026-04-28 20:07 | -16.44064 | -39.08960 | 163 ft | 9 kts | 288° |
| 2026-04-28 20:07 | -16.44076 | -39.08987 | 162 ft | 5 kts | 185° |
| 2026-04-28 20:07 | -16.44081 | -39.08942 | 163 ft | 12 kts | 74° |
| 2026-04-28 20:07 | -16.43993 | -39.08615 | 161 ft | 85 kts | 74° |
| 2026-04-28 20:08 | -16.43775 | -39.07807 | 165 ft | 145 kts | 74° |
| 2026-04-28 20:08 | -16.43490 | -39.06741 | 665 ft | 148 kts | 75° |
| 2026-04-28 20:08 | -16.43205 | -39.05691 | 1253 ft | 158 kts | 75° |
| 2026-04-28 20:08 | -16.42888 | -39.04503 | 1633 ft | 186 kts | 75° |
| 2026-04-28 20:09 | -16.42524 | -39.03075 | 2057 ft | 219 kts | 82° |
| 2026-04-28 20:09 | -16.42775 | -39.01454 | 2642 ft | 242 kts | 119° |
| 2026-04-28 20:09 | -16.44048 | -39.00237 | 3414 ft | 261 kts | 155° |
| 2026-04-28 20:09 | -16.45836 | -38.99898 | 4519 ft | 267 kts | 179° |
| 2026-04-28 20:10 | -16.47683 | -39.00342 | 5434 ft | 280 kts | 207° |
| 2026-04-28 20:10 | -16.49138 | -39.01696 | 6475 ft | 287 kts | 236° |
| 2026-04-28 20:10 | -16.49889 | -39.03611 | 7345 ft | 292 kts | 254° |
| 2026-04-28 20:10 | -16.50514 | -39.05656 | 8200 ft | 300 kts | 251° |
| 2026-04-28 20:11 | -16.51189 | -39.07725 | 9099 ft | 304 kts | 251° |
| 2026-04-28 20:11 | -16.51886 | -39.09834 | 9958 ft | 311 kts | 251° |
| 2026-04-28 20:11 | -16.52611 | -39.11995 | 10566 ft | 324 kts | 250° |
| 2026-04-28 20:11 | -16.53394 | -39.14269 | 10957 ft | 343 kts | 250° |
| 2026-04-28 20:12 | -16.54218 | -39.16651 | 11471 ft | 355 kts | 250° |
| 2026-04-28 20:12 | -16.55048 | -39.19082 | 12261 ft | 356 kts | 251° |
| 2026-04-28 20:12 | -16.55871 | -39.21536 | 12985 ft | 361 kts | 251° |
| 2026-04-28 20:12 | -16.56422 | -39.23173 | 13456 ft | 363 kts | 251° |
| 2026-04-28 20:13 | -16.57540 | -39.26515 | 14345 ft | 367 kts | 251° |
| 2026-04-28 20:13 | -16.58382 | -39.29039 | 14962 ft | 370 kts | 251° |
| 2026-04-28 20:13 | -16.59233 | -39.31587 | 15559 ft | 373 kts | 251° |
| 2026-04-28 20:13 | -16.60080 | -39.34124 | 16147 ft | 376 kts | 251° |
| 2026-04-28 20:14 | -16.60945 | -39.36721 | 16744 ft | 379 kts | 251° |
| 2026-04-28 20:14 | -16.61817 | -39.39336 | 17288 ft | 383 kts | 252° |
| 2026-04-28 20:14 | -16.62697 | -39.41978 | 17841 ft | 386 kts | 252° |
| 2026-04-28 20:14 | -16.63582 | -39.44631 | 18369 ft | 389 kts | 252° |
| 2026-04-28 20:15 | -16.64470 | -39.47300 | 18851 ft | 391 kts | 252° |
| 2026-04-28 20:15 | -16.65366 | -39.49994 | 19298 ft | 394 kts | 252° |
| 2026-04-28 20:15 | -16.66265 | -39.52696 | 19753 ft | 396 kts | 252° |
| 2026-04-28 20:15 | -16.67166 | -39.55408 | 20196 ft | 399 kts | 252° |
| 2026-04-28 20:16 | -16.68068 | -39.58121 | 20646 ft | 401 kts | 252° |
| 2026-04-28 20:16 | -16.68986 | -39.60888 | 21093 ft | 404 kts | 252° |
| 2026-04-28 20:16 | -16.69909 | -39.63667 | 21515 ft | 407 kts | 252° |
| 2026-04-28 20:16 | -16.70837 | -39.66464 | 21974 ft | 410 kts | 252° |
| 2026-04-28 20:17 | -16.71773 | -39.69283 | 22422 ft | 412 kts | 252° |
| 2026-04-28 20:17 | -16.72712 | -39.72119 | 22870 ft | 415 kts | 252° |
| 2026-04-28 20:17 | -16.73658 | -39.74978 | 23294 ft | 418 kts | 252° |
| 2026-04-28 20:17 | -16.74613 | -39.77857 | 23709 ft | 421 kts | 252° |
| 2026-04-28 20:18 | -16.75569 | -39.80744 | 24103 ft | 423 kts | 252° |
| 2026-04-28 20:18 | -16.76205 | -39.82671 | 24370 ft | 424 kts | 252° |
| 2026-04-28 20:18 | -16.77494 | -39.86581 | 24849 ft | 428 kts | 252° |
| 2026-04-28 20:18 | -16.78470 | -39.89529 | 25230 ft | 430 kts | 252° |
| 2026-04-28 20:19 | -16.79445 | -39.92482 | 25661 ft | 431 kts | 252° |
| 2026-04-28 20:19 | -16.80422 | -39.95449 | 26047 ft | 433 kts | 252° |
| 2026-04-28 20:19 | -16.81395 | -39.98396 | 26410 ft | 436 kts | 252° |
| 2026-04-28 20:19 | -16.82395 | -40.01426 | 26816 ft | 437 kts | 251° |
| 2026-04-28 20:20 | -16.83379 | -40.04422 | 27203 ft | 439 kts | 251° |
| 2026-04-28 20:20 | -16.84360 | -40.07407 | 27555 ft | 441 kts | 251° |
| 2026-04-28 20:20 | -16.85362 | -40.10446 | 27933 ft | 443 kts | 251° |
| 2026-04-28 20:20 | -16.86364 | -40.13494 | 28313 ft | 444 kts | 251° |
| 2026-04-28 20:21 | -16.87367 | -40.16552 | 28657 ft | 447 kts | 251° |
| 2026-04-28 20:21 | -16.88378 | -40.19629 | 28990 ft | 449 kts | 251° |
| 2026-04-28 20:21 | -16.89393 | -40.22726 | 29336 ft | 450 kts | 251° |
| 2026-04-28 20:21 | -16.90399 | -40.25796 | 29687 ft | 452 kts | 251° |
| 2026-04-28 20:22 | -16.91417 | -40.28897 | 30043 ft | 453 kts | 251° |
| 2026-04-28 20:22 | -16.92437 | -40.32017 | 30341 ft | 455 kts | 251° |
| 2026-04-28 20:22 | -16.93465 | -40.35156 | 30607 ft | 457 kts | 251° |
| 2026-04-28 20:22 | -16.94486 | -40.38277 | 30912 ft | 458 kts | 251° |
| 2026-04-28 20:23 | -16.95517 | -40.41438 | 31185 ft | 460 kts | 251° |
| 2026-04-28 20:23 | -16.96555 | -40.44615 | 31456 ft | 461 kts | 251° |
| 2026-04-28 20:23 | -16.97593 | -40.47792 | 31754 ft | 462 kts | 251° |
| 2026-04-28 20:23 | -16.98280 | -40.49902 | 31960 ft | 463 kts | 251° |
| 2026-04-28 20:24 | -16.99666 | -40.54154 | 32269 ft | 466 kts | 251° |
| 2026-04-28 20:24 | -17.00705 | -40.57340 | 32546 ft | 467 kts | 251° |
| 2026-04-28 20:24 | -17.01750 | -40.60560 | 32929 ft | 466 kts | 252° |
| 2026-04-28 20:24 | -17.02793 | -40.63779 | 33295 ft | 466 kts | 251° |
| 2026-04-28 20:25 | -17.03832 | -40.66983 | 33664 ft | 465 kts | 252° |
| 2026-04-28 20:25 | -17.04867 | -40.70179 | 34070 ft | 463 kts | 252° |
| 2026-04-28 20:25 | -17.05899 | -40.73363 | 34395 ft | 462 kts | 252° |
| 2026-04-28 20:25 | -17.06921 | -40.76520 | 34700 ft | 462 kts | 252° |
| 2026-04-28 20:26 | -17.07947 | -40.79688 | 35038 ft | 460 kts | 252° |
| 2026-04-28 20:26 | -17.08970 | -40.82851 | 35362 ft | 459 kts | 252° |
| 2026-04-28 20:26 | -17.09995 | -40.86021 | 35677 ft | 458 kts | 252° |
| 2026-04-28 20:26 | -17.11013 | -40.89169 | 35967 ft | 458 kts | 252° |
| 2026-04-28 20:27 | -17.12032 | -40.92323 | 36050 ft | 457 kts | 252° |
| 2026-04-28 20:27 | -17.14044 | -40.98553 | 36036 ft | 453 kts | 252° |
| 2026-04-28 20:28 | -17.16058 | -41.04791 | 36033 ft | 453 kts | 252° |
| 2026-04-28 20:28 | -17.17734 | -41.09988 | 36035 ft | 453 kts | 252° |
| 2026-04-28 20:29 | -17.19749 | -41.16243 | 36030 ft | 453 kts | 252° |
| 2026-04-28 20:29 | -17.22090 | -41.23516 | 36039 ft | 453 kts | 252° |
| 2026-04-28 20:30 | -17.23757 | -41.28702 | 36043 ft | 453 kts | 252° |
| 2026-04-28 20:30 | -17.25769 | -41.34969 | 36051 ft | 453 kts | 252° |
| 2026-04-28 20:31 | -17.27773 | -41.41220 | 36046 ft | 453 kts | 252° |
| 2026-04-28 20:31 | -17.29765 | -41.47438 | 36051 ft | 453 kts | 252° |
| 2026-04-28 20:32 | -17.31762 | -41.53681 | 36053 ft | 453 kts | 252° |
| 2026-04-28 20:32 | -17.33764 | -41.59946 | 36053 ft | 453 kts | 252° |
| 2026-04-28 20:33 | -17.35751 | -41.66174 | 36052 ft | 453 kts | 252° |
| 2026-04-28 20:33 | -17.37750 | -41.72443 | 36053 ft | 453 kts | 252° |
| 2026-04-28 20:34 | -17.39727 | -41.78653 | 36061 ft | 453 kts | 252° |
| 2026-04-28 20:34 | -17.41716 | -41.84907 | 36053 ft | 452 kts | 252° |
| 2026-04-28 20:35 | -17.43704 | -41.91167 | 36053 ft | 453 kts | 252° |
| 2026-04-28 20:35 | -17.45702 | -41.97430 | 36051 ft | 453 kts | 250° |
| 2026-04-28 20:35 | -17.47152 | -42.00351 | 36038 ft | 453 kts | 234° |
| 2026-04-28 20:36 | -17.49125 | -42.02900 | 36062 ft | 455 kts | 232° |
| 2026-04-28 20:36 | -17.53176 | -42.07969 | 36057 ft | 455 kts | 231° |
| 2026-04-28 20:37 | -17.57311 | -42.13033 | 36060 ft | 455 kts | 231° |
| 2026-04-28 20:37 | -17.61414 | -42.18037 | 36053 ft | 455 kts | 231° |
| 2026-04-28 20:38 | -17.65533 | -42.23063 | 36051 ft | 455 kts | 231° |
| 2026-04-28 20:38 | -17.69671 | -42.28115 | 36051 ft | 456 kts | 231° |
| 2026-04-28 20:39 | -17.73665 | -42.32996 | 36049 ft | 456 kts | 231° |
| 2026-04-28 20:39 | -17.77798 | -42.38050 | 36050 ft | 455 kts | 231° |
| 2026-04-28 20:40 | -17.81902 | -42.43072 | 36044 ft | 455 kts | 231° |
| 2026-04-28 20:40 | -17.86022 | -42.48119 | 36044 ft | 455 kts | 231° |
| 2026-04-28 20:41 | -17.90146 | -42.53173 | 36044 ft | 455 kts | 231° |
| 2026-04-28 20:41 | -17.94268 | -42.58230 | 36046 ft | 455 kts | 231° |
| 2026-04-28 20:42 | -17.98359 | -42.63252 | 36045 ft | 455 kts | 231° |
| 2026-04-28 20:42 | -18.02474 | -42.68308 | 36046 ft | 455 kts | 231° |
| 2026-04-28 20:43 | -18.06598 | -42.73379 | 36047 ft | 455 kts | 231° |
| 2026-04-28 20:43 | -18.10707 | -42.78435 | 35861 ft | 450 kts | 231° |
| 2026-04-28 20:43 | -18.12746 | -42.80947 | 34962 ft | 456 kts | 231° |
| 2026-04-28 20:44 | -18.14796 | -42.83471 | 33937 ft | 466 kts | 231° |
| 2026-04-28 20:44 | -18.16908 | -42.86073 | 33110 ft | 468 kts | 231° |
| 2026-04-28 20:44 | -18.19014 | -42.88669 | 32597 ft | 463 kts | 231° |
| 2026-04-28 20:44 | -18.21085 | -42.91224 | 32165 ft | 457 kts | 231° |
| 2026-04-28 20:45 | -18.23136 | -42.93754 | 31659 ft | 453 kts | 231° |
| 2026-04-28 20:45 | -18.25175 | -42.96271 | 31078 ft | 451 kts | 231° |
| 2026-04-28 20:45 | -18.27207 | -42.98779 | 30477 ft | 451 kts | 231° |
| 2026-04-28 20:45 | -18.29239 | -43.01289 | 29876 ft | 450 kts | 231° |
| 2026-04-28 20:46 | -18.31253 | -43.03777 | 29248 ft | 448 kts | 231° |
| 2026-04-28 20:46 | -18.33265 | -43.06264 | 28695 ft | 444 kts | 231° |
| 2026-04-28 20:46 | -18.35260 | -43.08731 | 28161 ft | 441 kts | 231° |
| 2026-04-28 20:46 | -18.37244 | -43.11185 | 27619 ft | 438 kts | 231° |
| 2026-04-28 20:47 | -18.39309 | -43.13542 | 26989 ft | 440 kts | 222° |
| 2026-04-28 20:47 | -18.41683 | -43.15512 | 26398 ft | 440 kts | 220° |
| 2026-04-28 20:47 | -18.44064 | -43.17516 | 25916 ft | 436 kts | 220° |
| 2026-04-28 20:47 | -18.46434 | -43.19512 | 25406 ft | 435 kts | 220° |
| 2026-04-28 20:48 | -18.48782 | -43.21488 | 24874 ft | 434 kts | 220° |
| 2026-04-28 20:48 | -18.51141 | -43.23474 | 24355 ft | 433 kts | 220° |
| 2026-04-28 20:48 | -18.53496 | -43.25457 | 23845 ft | 432 kts | 220° |
| 2026-04-28 20:48 | -18.55847 | -43.27436 | 23271 ft | 431 kts | 220° |
| 2026-04-28 20:49 | -18.58189 | -43.29409 | 22716 ft | 429 kts | 220° |
| 2026-04-28 20:49 | -18.60509 | -43.31364 | 22214 ft | 425 kts | 220° |
| 2026-04-28 20:49 | -18.62781 | -43.33279 | 21746 ft | 422 kts | 220° |
| 2026-04-28 20:49 | -18.65067 | -43.35207 | 21260 ft | 419 kts | 220° |
| 2026-04-28 20:50 | -18.67328 | -43.37115 | 20791 ft | 416 kts | 220° |
| 2026-04-28 20:50 | -18.69587 | -43.39021 | 20329 ft | 413 kts | 220° |
| 2026-04-28 20:50 | -18.71832 | -43.40916 | 19867 ft | 411 kts | 220° |
| 2026-04-28 20:50 | -18.74032 | -43.42775 | 19427 ft | 408 kts | 220° |
| 2026-04-28 20:51 | -18.76246 | -43.44646 | 18985 ft | 406 kts | 220° |
| 2026-04-28 20:51 | -18.78443 | -43.46502 | 18546 ft | 404 kts | 220° |
| 2026-04-28 20:51 | -18.80639 | -43.48358 | 18071 ft | 402 kts | 220° |
| 2026-04-28 20:51 | -18.82084 | -43.49580 | 17755 ft | 401 kts | 220° |
| 2026-04-28 20:52 | -18.84987 | -43.52036 | 17165 ft | 397 kts | 220° |
| 2026-04-28 20:52 | -18.87099 | -43.53824 | 16739 ft | 394 kts | 220° |
| 2026-04-28 20:52 | -18.89229 | -43.55627 | 16313 ft | 391 kts | 220° |
| 2026-04-28 20:52 | -18.91345 | -43.57419 | 15892 ft | 388 kts | 220° |
| 2026-04-28 20:53 | -18.95538 | -43.60972 | 15059 ft | 384 kts | 220° |
| 2026-04-28 20:53 | -18.97627 | -43.62742 | 14633 ft | 382 kts | 219° |
| 2026-04-28 20:53 | -18.99702 | -43.64501 | 14209 ft | 381 kts | 219° |
| 2026-04-28 20:54 | -19.01737 | -43.66228 | 13799 ft | 379 kts | 219° |
| 2026-04-28 20:54 | -19.03799 | -43.67977 | 13326 ft | 377 kts | 219° |
| 2026-04-28 20:54 | -19.05832 | -43.69703 | 12902 ft | 375 kts | 219° |
| 2026-04-28 20:54 | -19.07838 | -43.71406 | 12496 ft | 372 kts | 218° |
| 2026-04-28 20:55 | -19.09855 | -43.73120 | 12078 ft | 370 kts | 218° |
| 2026-04-28 20:55 | -19.11855 | -43.74818 | 11675 ft | 367 kts | 218° |
| 2026-04-28 20:55 | -19.13840 | -43.76507 | 11265 ft | 365 kts | 217° |
| 2026-04-28 20:55 | -19.15820 | -43.78189 | 10891 ft | 361 kts | 217° |
| 2026-04-28 20:56 | -19.17733 | -43.79816 | 10717 ft | 352 kts | 217° |
| 2026-04-28 20:56 | -19.19622 | -43.81424 | 10557 ft | 342 kts | 217° |
| 2026-04-28 20:56 | -19.21459 | -43.82988 | 10394 ft | 333 kts | 217° |
| 2026-04-28 20:56 | -19.23225 | -43.84491 | 10231 ft | 325 kts | 217° |
| 2026-04-28 20:57 | -19.24970 | -43.85977 | 10060 ft | 317 kts | 217° |
| 2026-04-28 20:57 | -19.26674 | -43.87427 | 9739 ft | 315 kts | 217° |
| 2026-04-28 20:57 | -19.28383 | -43.88884 | 9358 ft | 314 kts | 217° |
| 2026-04-28 20:57 | -19.30081 | -43.90331 | 9008 ft | 313 kts | 217° |
| 2026-04-28 20:58 | -19.31770 | -43.91769 | 8683 ft | 311 kts | 217° |
| 2026-04-28 20:58 | -19.33447 | -43.93201 | 8359 ft | 308 kts | 217° |
| 2026-04-28 20:58 | -19.35118 | -43.94625 | 8035 ft | 307 kts | 217° |
| 2026-04-28 20:58 | -19.36781 | -43.96043 | 7717 ft | 305 kts | 217° |
| 2026-04-28 20:59 | -19.38404 | -43.97428 | 7505 ft | 300 kts | 217° |
| 2026-04-28 20:59 | -19.40012 | -43.98800 | 7362 ft | 292 kts | 217° |
| 2026-04-28 20:59 | -19.41569 | -44.00129 | 7225 ft | 284 kts | 217° |
| 2026-04-28 20:59 | -19.43083 | -44.01431 | 7136 ft | 274 kts | 220° |
| 2026-04-28 21:00 | -19.44375 | -44.02899 | 6893 ft | 272 kts | 229° |
| 2026-04-28 21:00 | -19.45601 | -44.04413 | 6663 ft | 268 kts | 227° |
| 2026-04-28 21:00 | -19.46824 | -44.05888 | 6465 ft | 263 kts | 227° |
| 2026-04-28 21:00 | -19.48047 | -44.07272 | 6157 ft | 259 kts | 217° |
| 2026-04-28 21:01 | -19.49660 | -44.08019 | 5842 ft | 252 kts | 183° |
| 2026-04-28 21:01 | -19.51319 | -44.07724 | 5573 ft | 238 kts | 152° |
| 2026-04-28 21:01 | -19.52673 | -44.06762 | 5259 ft | 233 kts | 140° |
| 2026-04-28 21:01 | -19.53914 | -44.05651 | 4978 ft | 232 kts | 137° |
| 2026-04-28 21:02 | -19.55106 | -44.04534 | 4626 ft | 224 kts | 136° |
| 2026-04-28 21:02 | -19.56223 | -44.03497 | 4328 ft | 209 kts | 136° |
| 2026-04-28 21:02 | -19.57279 | -44.02520 | 4074 ft | 190 kts | 136° |
| 2026-04-28 21:02 | -19.58212 | -44.01654 | 3847 ft | 168 kts | 136° |
| 2026-04-28 21:03 | -19.59056 | -44.00870 | 3639 ft | 156 kts | 136° |
| 2026-04-28 21:03 | -19.59872 | -44.00113 | 3458 ft | 155 kts | 137° |
| 2026-04-28 21:03 | -19.60686 | -43.99358 | 3277 ft | 155 kts | 137° |
| 2026-04-28 21:03 | -19.61491 | -43.98604 | 3073 ft | 155 kts | 139° |
| 2026-04-28 21:04 | -19.62311 | -43.97852 | 2863 ft | 157 kts | 139° |
| 2026-04-28 21:04 | -19.63086 | -43.97140 | 2828 ft | 123 kts | 139° |
| 2026-04-28 21:04 | -19.63509 | -43.96748 | 2828 ft | 44 kts | 138° |
| 2026-04-28 21:04 | -19.63601 | -43.96555 | 2826 ft | 29 kts | 109° |
| 2026-04-28 21:05 | -19.63642 | -43.96399 | 2828 ft | 18 kts | 77° |
| 2026-04-28 21:05 | -19.63545 | -43.96320 | 2827 ft | 19 kts | 28° |
| 2026-04-28 21:05 | -19.63434 | -43.96320 | 2828 ft | 18 kts | 306° |
| 2026-04-28 21:05 | -19.63362 | -43.96434 | 2827 ft | 19 kts | 314° |
| 2026-04-28 21:06 | -19.63256 | -43.96530 | 2829 ft | 21 kts | 319° |
| 2026-04-28 21:06 | -19.63142 | -43.96634 | 2827 ft | 22 kts | 319° |
| 2026-04-28 21:06 | -19.63027 | -43.96739 | 2827 ft | 17 kts | 319° |
| 2026-04-28 21:06 | -19.62983 | -43.96757 | 2829 ft | 6 kts | 25° |
| 2026-04-28 21:07 | -19.62956 | -43.96726 | 2828 ft | 3 kts | 49° |
| 2026-04-28 21:07 | -19.62953 | -43.96722 | 2828 ft | 0 kts | 49° |